Time;durP1;ratioP1;P1;durP2;ratioP2;P2;SDS_P1;SDS_P2;PMS_P1;PMS_P2;Temp;Humidity;BMP_temperature;BMP_pressure;BME280_temperature;BME280_humidity;BME280_pressure;Samples;Min_cycle;Max_cycle;Signal;HPM_P1;HPM_P2
2021/05/27 00:01:35;;;;;;;14.80;9.57;;;13.30;89.20;;;12.20;82.02;100273.06;5027062;28;20050;-79
2021/05/27 00:04:11;;;;;;;13.48;8.73;;;13.30;89.40;;;12.20;81.97;100273.06;5012100;28;20116;-79
2021/05/27 00:06:43;;;;;;;15.77;8.60;;;13.30;89.40;;;12.21;82.01;100272.03;5012032;28;20037;-79
2021/05/27 00:09:15;;;;;;;13.68;8.88;;;13.20;89.30;;;12.21;82.21;100270.13;5011986;28;20515;-79
2021/05/27 00:11:54;;;;;;;15.15;9.63;;;13.30;89.50;;;12.20;81.66;100273.06;5011861;28;20038;-79
2021/05/27 00:14:27;;;;;;;18.27;9.20;;;13.30;89.30;;;12.23;81.81;100267.22;5008382;28;20046;-79
2021/05/27 00:17:05;;;;;;;12.50;9.65;;;13.20;89.10;;;12.25;81.85;100278.75;5011699;28;20038;-79
2021/05/27 00:19:40;;;;;;;13.02;8.70;;;13.30;89.40;;;12.23;81.78;100275.41;5017973;28;20073;-79
2021/05/27 00:22:16;;;;;;;11.30;8.90;;;13.20;89.10;;;12.23;82.02;100265.31;5031449;28;20072;-79
2021/05/27 00:24:54;;;;;;;12.98;8.27;;;13.20;89.30;;;12.21;81.83;100274.75;5031363;28;20175;-79
2021/05/27 00:27:33;;;;;;;14.40;8.27;;;13.20;89.10;;;12.18;81.64;100272.41;5031162;28;20516;-79
2021/05/27 00:30:08;;;;;;;12.70;8.50;;;13.30;89.00;;;12.19;81.89;100274.13;5030628;28;20490;-79
2021/05/27 00:32:44;;;;;;;12.10;7.80;;;13.30;89.10;;;12.18;81.77;100280.59;5031290;28;20465;-79
2021/05/27 00:35:22;;;;;;;14.07;8.80;;;13.30;89.10;;;12.19;81.59;100277.69;5031319;28;20033;-79
2021/05/27 00:38:02;;;;;;;12.82;8.63;;;13.30;89.00;;;12.20;81.74;100267.59;5031194;28;20454;-79
2021/05/27 00:40:40;;;;;;;20.23;9.05;;;13.20;89.00;;;12.19;81.54;100266.75;5030904;28;20064;-79
2021/05/27 00:43:20;;;;;;;12.57;9.00;;;13.30;89.00;;;12.23;81.28;100269.94;5031149;28;20531;-79
2021/05/27 00:45:56;;;;;;;16.42;9.70;;;13.30;89.10;;;12.23;81.23;100275.41;5030884;28;20103;-79
2021/05/27 00:51:20;;;;;;;16.05;11.05;;;13.30;88.90;;;12.21;81.24;100278.31;5030526;28;20552;-79
2021/05/27 00:53:55;;;;;;;15.32;11.20;;;13.30;88.90;;;12.21;81.14;100280.22;5030865;28;20080;-79
2021/05/27 00:56:37;;;;;;;17.40;10.93;;;13.30;88.90;;;12.19;81.27;100272.22;5030769;28;20037;-79
2021/05/27 00:59:15;;;;;;;20.05;11.82;;;13.30;88.90;;;12.20;81.52;100278.50;5045949;28;20505;-79
2021/05/27 01:01:53;;;;;;;18.02;11.52;;;13.30;89.10;;;12.22;81.67;100279.16;5045643;28;20140;-79
2021/05/27 01:04:28;;;;;;;;;;;13.20;88.80;;;12.22;81.30;100284.59;5046355;28;20050;-79
2021/05/27 01:07:01;;;;;;;22.75;13.68;;;13.30;89.00;;;12.19;81.38;100274.94;5030508;28;19925;-79
2021/05/27 01:09:39;;;;;;;23.55;13.27;;;13.30;88.90;;;12.22;81.29;100280.03;5045509;28;20056;-79
2021/05/27 01:12:15;;;;;;;20.35;12.98;;;13.20;89.00;;;12.20;81.43;100279.34;5045800;28;20084;-79
2021/05/27 01:17:48;;;;;;;20.10;13.18;;;13.30;89.10;;;12.22;81.36;100281.88;5030440;28;20045;-79
2021/05/27 01:20:22;;;;;;;24.05;14.63;;;13.20;88.70;;;12.23;81.25;100283.59;5043803;28;20575;-79
2021/05/27 01:23:03;;;;;;;21.30;15.00;;;13.20;88.80;;;12.19;81.08;100277.69;5029468;28;20045;-79
2021/05/27 01:25:41;;;;;;;21.42;14.82;;;13.20;88.80;;;12.22;81.04;100287.34;5045429;28;20057;-79
2021/05/27 01:28:19;;;;;;;23.92;15.45;;;13.20;88.70;;;12.22;81.02;100282.75;5030154;28;20057;-79
2021/05/27 01:30:55;;;;;;;21.10;14.10;;;13.30;88.70;;;12.20;80.95;100284.81;5028384;28;20060;-79
2021/05/27 01:33:41;;;;;;;20.67;13.45;;;13.30;88.70;;;12.22;81.35;100287.34;5045391;28;20052;-79
2021/05/27 01:36:18;;;;;;;19.83;13.82;;;13.20;88.70;;;12.19;81.53;100282.31;5045281;28;20072;-79
2021/05/27 01:38:57;;;;;;;20.10;13.27;;;13.20;88.60;;;12.22;81.38;100281.88;5030137;28;20037;-79
2021/05/27 01:41:36;;;;;;;18.75;11.57;;;13.30;88.70;;;12.20;81.22;100281.25;5044764;28;20081;-79
2021/05/27 01:44:15;;;;;;;16.10;11.85;;;13.30;88.60;;;12.21;81.38;100278.31;5029165;28;20529;-79
2021/05/27 01:46:53;;;;;;;20.35;10.82;;;13.30;88.60;;;12.23;81.06;100278.97;5024983;28;20088;-79
2021/05/27 01:49:29;;;;;;;18.73;11.60;;;13.30;88.50;;;12.23;80.92;100280.84;5025087;28;20069;-79
2021/05/27 01:52:04;;;;;;;19.33;10.73;;;13.30;88.60;;;12.25;81.15;100281.50;5010101;28;20038;-79
2021/05/27 01:54:45;;;;;;;20.85;10.73;;;13.20;88.50;;;12.24;81.03;100279.78;5025203;28;20053;-79
2021/05/27 01:57:23;;;;;;;19.90;11.55;;;13.30;88.60;;;12.17;80.99;100290.69;5024885;28;20043;-79
2021/05/27 01:59:58;;;;;;;15.43;9.60;;;13.30;88.40;;;12.22;81.13;100279.16;5024509;28;20054;-79
2021/05/27 02:02:34;;;;;;;22.13;10.98;;;13.30;88.50;;;12.24;81.20;100277.06;5008477;28;20050;-79
2021/05/27 02:05:16;;;;;;;15.18;10.57;;;13.30;88.50;;;12.25;80.87;100282.31;5009687;28;20135;-79
2021/05/27 02:07:56;;;;;;;17.83;9.43;;;13.30;88.60;;;12.26;80.85;100283.16;5009647;28;20041;-79
2021/05/27 02:10:49;;;;;;;15.57;9.23;;;13.30;88.60;;;12.24;81.29;100288.84;5008024;28;20053;-79
2021/05/27 02:13:26;;;;;;;14.95;8.93;;;13.30;88.80;;;12.25;81.52;100284.22;5009706;28;20053;-79
2021/05/27 02:16:08;;;;;;;18.48;9.07;;;13.30;88.90;;;12.23;81.62;100289.88;5008139;28;20077;-79
2021/05/27 02:18:43;;;;;;;18.00;8.85;;;13.30;88.80;;;12.21;81.96;100285.66;5009500;28;20042;-80
2021/05/27 02:21:18;;;;;;;16.55;9.20;;;13.30;88.90;;;12.22;82.40;100293.66;5009332;28;20041;-79
2021/05/27 02:23:59;;;;;;;16.30;8.50;;;13.30;89.40;;;12.19;82.63;100293.22;5005275;28;20545;-79
2021/05/27 02:26:36;;;;;;;14.55;8.57;;;13.30;89.50;;;12.19;82.62;100293.22;5024511;28;20050;-79
2021/05/27 02:29:21;;;;;;;15.73;9.00;;;13.30;89.50;;;12.20;82.92;100289.44;5009405;28;20069;-79
2021/05/27 02:32:00;;;;;;;15.88;8.65;;;13.30;89.90;;;12.17;82.79;100285.22;5007934;28;20637;-79
2021/05/27 02:34:38;;;;;;;13.75;8.88;;;13.30;89.90;;;12.19;83.16;100295.94;5009330;28;20046;-79
2021/05/27 02:37:16;;;;;;;11.75;8.20;;;13.20;90.00;;;12.16;83.36;100299.06;5009201;28;20160;-79
2021/05/27 02:39:57;;;;;;;12.90;8.10;;;13.20;90.30;;;12.12;83.50;100288.53;5007645;28;20045;-79
2021/05/27 02:42:33;;;;;;;17.13;9.63;;;13.30;90.30;;;12.08;83.79;100303.63;5007897;28;20466;-79
2021/05/27 02:45:12;;;;;;;11.63;8.30;;;13.30;90.40;;;12.10;83.64;100303.44;5009205;28;20042;-79
2021/05/27 02:47:56;;;;;;;14.70;8.15;;;13.20;90.20;;;12.12;83.74;100302.19;5007432;28;20053;-79
2021/05/27 02:50:32;;;;;;;16.13;8.95;;;13.20;90.30;;;12.11;83.86;100295.06;5007463;28;20057;-79
2021/05/27 02:53:14;;;;;;;14.50;8.57;;;13.20;90.40;;;12.09;83.64;100299.88;5007651;28;20120;-79
2021/05/27 02:55:53;;;;;;;15.45;8.57;;;13.20;90.30;;;12.11;83.52;100307.84;5007749;28;20046;-80
2021/05/27 02:58:25;;;;;;;15.77;10.02;;;13.20;90.20;;;12.05;83.29;100309.50;5007714;28;20095;-79
2021/05/27 03:01:01;;;;;;;17.15;9.65;;;13.30;90.10;;;12.04;83.58;100312.41;5007557;28;20124;-79
2021/05/27 03:03:40;;;;;;;16.92;10.40;;;13.20;90.00;;;12.06;83.51;100310.34;5009085;28;20045;-79
2021/05/27 03:06:16;;;;;;;21.65;9.82;;;13.20;90.00;;;12.07;83.23;100312.00;5008818;28;20383;-79
2021/05/27 03:08:55;;;;;;;13.88;9.52;;;13.20;90.00;;;12.08;83.03;100310.97;5007432;28;20111;-79
2021/05/27 03:11:33;;;;;;;18.23;10.30;;;13.20;90.00;;;12.05;83.15;100316.81;5008618;28;20046;-79
2021/05/27 03:14:15;;;;;;;21.52;12.57;;;13.20;90.10;;;11.97;83.62;100320.53;5007496;28;20054;-79
2021/05/27 03:17:05;;;;;;;21.40;12.68;;;13.10;90.00;;;11.92;83.56;100317.59;5007403;28;20410;-79
2021/05/27 03:19:43;;;;;;;24.48;13.20;;;13.20;90.00;;;11.95;83.81;100319.06;5008648;28;20164;-79
2021/05/27 03:22:22;;;;;;;22.27;12.80;;;13.20;90.20;;;11.98;83.45;100329.59;5007436;28;20054;-79
2021/05/27 03:24:59;;;;;;;27.30;14.20;;;13.10;90.30;;;11.98;83.53;100327.69;5007524;28;20049;-79
2021/05/27 03:27:35;;;;;;;23.80;13.70;;;13.10;90.10;;;11.99;83.30;100320.34;5007308;28;20084;-79
2021/05/27 03:30:18;;;;;;;26.27;15.02;;;13.10;90.30;;;12.02;83.35;100320.78;5006872;28;20052;-79
2021/05/27 03:32:58;;;;;;;30.13;15.50;;;13.10;90.20;;;12.02;83.51;100325.41;5007448;28;20104;-79
2021/05/27 03:35:32;;;;;;;27.88;15.90;;;13.10;90.30;;;12.01;83.39;100340.09;5007326;28;20544;-79
2021/05/27 03:38:07;;;;;;;32.17;15.65;;;13.10;90.60;;;12.02;83.39;100333.59;5023758;28;20049;-79
2021/05/27 03:40:47;;;;;;;28.38;16.13;;;13.00;90.50;;;12.00;83.51;100339.25;5005555;28;20050;-80
2021/05/27 03:43:26;;;;;;;34.78;16.70;;;13.00;90.40;;;11.98;83.55;100338.59;5007294;28;20050;-79
2021/05/27 03:48:55;;;;;;;29.77;16.48;;;12.90;90.40;;;11.96;82.91;100337.13;5006402;28;20060;-82
2021/05/27 03:51:34;;;;;;;27.25;15.88;;;13.00;90.40;;;11.96;83.18;100342.59;5005773;28;20088;-82
2021/05/27 03:54:06;;;;;;;30.15;16.58;;;13.00;90.60;;;11.97;83.24;100346.97;5008432;28;20073;-82
2021/05/27 03:56:43;;;;;;;30.90;16.48;;;13.00;90.60;;;11.93;83.91;100349.25;5006979;28;20057;-82
2021/05/27 04:02:26;;;;;;;31.38;18.30;;;12.90;91.10;;;11.92;83.73;100356.59;5007117;28;20935;-82
2021/05/27 04:08:23;;;;;;;31.05;17.42;;;12.90;91.10;;;11.91;83.75;100356.78;5007142;28;20453;-82
2021/05/27 04:11:01;;;;;;;31.88;16.90;;;12.90;91.10;;;11.86;84.59;100354.63;5011397;28;20054;-81
2021/05/27 04:13:39;;;;;;;27.85;16.40;;;12.90;91.10;;;11.83;84.43;100359.63;5010783;28;20097;-81
2021/05/27 04:16:17;;;;;;;32.00;17.10;;;12.90;91.40;;;11.85;84.37;100357.56;5011905;28;20546;-82
2021/05/27 04:18:52;;;;;;;33.88;17.75;;;12.90;91.40;;;11.83;84.33;100368.66;5011742;28;20100;-82
2021/05/27 04:21:28;;;;;;;31.83;16.02;;;12.90;91.50;;;11.83;84.37;100368.66;5011557;28;20056;-82
2021/05/27 04:24:03;;;;;;;29.23;17.42;;;12.90;91.60;;;11.83;84.49;100365.94;5011196;28;20046;-82
2021/05/27 04:26:41;;;;;;;32.67;16.42;;;12.90;91.70;;;11.80;84.70;100373.66;5011468;28;20045;-82
2021/05/27 04:29:13;;;;;;;36.35;17.05;;;12.90;91.70;;;11.81;84.18;100362.56;5011544;28;20042;-81
2021/05/27 04:31:52;;;;;;;30.40;16.50;;;12.80;91.50;;;11.80;84.25;100385.38;5011390;28;20046;-81
2021/05/27 04:34:31;;;;;;;31.30;16.73;;;12.80;91.50;;;11.81;84.29;100378.09;5011373;28;20086;-82
2021/05/27 04:37:08;;;;;;;31.20;16.45;;;12.80;91.60;;;11.80;84.61;100381.84;5009964;28;20050;-81
2021/05/27 04:39:46;;;;;;;31.17;16.00;;;12.80;91.60;;;11.80;84.10;100379.94;5011202;28;20053;-82
2021/05/27 04:42:21;;;;;;;36.28;17.10;;;12.80;91.60;;;11.76;84.30;100386.81;5011282;28;20057;-82
2021/05/27 04:44:53;;;;;;;33.42;17.48;;;12.80;91.50;;;11.78;84.46;100389.38;5011701;28;20093;-82
2021/05/27 04:47:28;;;;;;;30.58;16.95;;;12.80;91.60;;;11.77;84.17;100387.69;5011189;28;20041;-79
2021/05/27 04:50:01;;;;;;;34.80;17.13;;;12.80;91.50;;;11.77;84.04;100387.69;5010965;28;20046;-79
2021/05/27 04:52:40;;;;;;;35.05;16.80;;;12.80;91.70;;;11.72;84.46;100394.56;5011222;28;20502;-79
2021/05/27 04:55:25;;;;;;;29.02;16.33;;;12.70;91.70;;;11.74;84.23;100400.66;5010986;28;20104;-85
2021/05/27 04:58:01;;;;;;;31.02;15.35;;;12.70;91.70;;;11.72;84.31;100405.47;5009000;28;20069;-86
2021/05/27 05:00:37;;;;;;;28.70;14.35;;;12.70;91.60;;;11.72;84.13;100408.19;5010473;28;20042;-87
2021/05/27 05:03:15;;;;;;;28.23;14.80;;;12.70;91.60;;;11.67;83.99;100409.81;5010462;28;20046;-86
2021/05/27 05:05:47;;;;;;;31.35;16.17;;;12.70;91.40;;;11.65;83.68;100412.75;4991187;28;20046;-86
2021/05/27 05:08:27;;;;;;;31.42;14.63;;;12.80;91.20;;;11.58;84.12;100411.81;4991210;28;20043;-86
2021/05/27 05:11:00;;;;;;;32.58;14.88;;;12.70;91.30;;;11.54;84.08;100418.72;4991011;28;20407;-86
2021/05/27 05:13:43;;;;;;;30.15;14.57;;;12.70;91.10;;;11.57;84.05;100421.03;4989759;28;20067;-86
2021/05/27 05:16:21;;;;;;;26.42;14.80;;;12.70;91.20;;;11.55;84.57;100423.09;4990877;28;20168;-85
2021/05/27 05:18:56;;;;;;;31.67;15.25;;;12.70;91.40;;;11.54;84.50;100418.72;4989024;28;20511;-86
2021/05/27 05:21:39;;;;;;;31.95;15.20;;;12.60;91.60;;;11.57;84.54;100420.19;4990874;28;20454;-88
2021/05/27 05:24:19;;;;;;;30.75;15.63;;;12.70;91.70;;;11.59;84.37;100421.69;4991033;28;20050;-86
2021/05/27 05:26:52;;;;;;;28.70;15.15;;;12.60;91.70;;;11.61;84.54;100425.06;4990700;28;20128;-86
2021/05/27 05:29:30;;;;;;;35.85;16.17;;;12.70;92.00;;;11.61;84.67;100429.66;5003443;28;20120;-83
2021/05/27 05:32:08;;;;;;;30.65;16.30;;;12.60;92.00;;;11.60;84.36;100423.38;5010566;28;20052;-83
2021/05/27 05:34:43;;;;;;;35.67;16.88;;;12.60;91.90;;;11.60;85.01;100426.09;5010076;28;20041;-83
2021/05/27 05:37:21;;;;;;;29.38;15.75;;;12.60;92.30;;;11.60;84.79;100430.72;5010406;28;20091;-85
2021/05/27 05:40:00;;;;;;;29.10;16.23;;;12.70;92.40;;;11.61;84.80;100427.78;5009845;28;20045;-81
2021/05/27 05:42:37;;;;;;;29.17;15.80;;;12.70;92.20;;;11.57;84.30;100431.09;5010179;28;20096;-82
2021/05/27 05:45:15;;;;;;;26.58;15.43;;;12.70;92.00;;;11.56;84.81;100435.72;5010088;28;20077;-84
2021/05/27 05:47:52;;;;;;;27.23;15.88;;;12.70;92.20;;;11.61;84.91;100432.41;5009933;28;20087;-81
2021/05/27 05:53:24;;;;;;;30.83;16.02;;;12.70;92.20;;;11.61;84.98;100437.84;5009813;28;20065;-83
2021/05/27 05:56:00;;;;;;;28.05;15.48;;;12.70;92.60;;;11.60;85.10;100437.00;4992877;28;20112;-84
2021/05/27 05:58:38;;;;;;;27.55;15.25;;;12.70;92.70;;;11.59;85.00;100435.31;5002094;28;20057;-82
2021/05/27 06:01:16;;;;;;;28.35;14.88;;;12.70;92.50;;;11.58;85.06;100438.25;4989558;28;20093;-82
2021/05/27 06:03:55;;;;;;;27.48;15.00;;;12.70;92.50;;;11.60;85.17;100450.63;5002252;28;20501;-82
2021/05/27 06:06:57;;;;;;;26.00;15.05;;;12.60;92.50;;;11.64;85.45;100445.66;4988531;28;20141;-82
2021/05/27 06:09:35;;;;;;;27.75;16.65;;;12.60;92.80;;;11.66;85.61;100438.94;4993423;28;20093;-82
2021/05/27 06:12:12;;;;;;;26.92;16.25;;;12.70;93.00;;;11.65;85.28;100450.91;5000598;28;20113;-82
2021/05/27 06:14:52;;;;;;;25.95;15.68;;;12.70;92.90;;;11.67;85.35;100448.84;4989776;28;20050;-83
2021/05/27 06:17:28;;;;;;;28.75;16.42;;;12.70;92.90;;;11.68;85.48;100450.50;4990004;28;20050;-82
2021/05/27 06:20:03;;;;;;;32.42;15.75;;;12.70;92.90;;;11.69;85.29;100452.22;4989706;28;20050;-82
2021/05/27 06:22:47;;;;;;;28.97;16.03;;;12.70;93.00;;;11.70;85.71;100459.34;5000838;28;20046;-82
2021/05/27 06:25:26;;;;;;;26.98;16.80;;;12.70;93.00;;;11.68;85.68;100460.56;5007771;28;20355;-82
2021/05/27 06:28:06;;;;;;;33.40;17.80;;;12.70;92.90;;;11.64;85.98;100454.66;5009024;28;20494;-82
2021/05/27 06:30:44;;;;;;;26.65;17.27;;;12.70;93.10;;;11.65;85.79;100467.28;5008686;28;20054;-81
2021/05/27 06:33:20;;;;;;;39.45;18.65;;;12.70;93.00;;;11.64;86.10;100468.28;5007876;28;20053;-79
2021/05/27 06:35:55;;;;;;;30.38;17.15;;;12.70;92.90;;;11.62;85.96;100467.66;5009417;28;20129;-79
2021/05/27 06:38:33;;;;;;;27.63;15.82;;;12.70;92.80;;;11.62;85.81;100473.09;5008982;28;20065;-79
2021/05/27 06:41:09;;;;;;;37.08;18.30;;;12.70;92.50;;;11.64;85.94;100472.91;5009007;28;20046;-78
2021/05/27 06:43:45;;;;;;;30.55;17.00;;;12.70;92.80;;;11.64;85.69;100471.00;5009167;28;20076;-79
2021/05/27 06:46:23;;;;;;;28.30;16.02;;;12.70;92.80;;;11.68;85.95;100477.78;5009021;28;20772;-79
2021/05/27 06:48:58;;;;;;;30.58;16.70;;;12.70;92.90;;;11.69;85.93;100482.19;5009067;28;20046;-79
2021/05/27 06:51:36;;;;;;;26.38;15.80;;;12.70;92.90;;;11.69;86.04;100478.59;5007925;28;20037;-79
2021/05/27 06:54:15;;;;;;;28.83;16.13;;;12.80;93.00;;;11.70;85.78;100475.69;5009069;28;20108;-80
2021/05/27 06:56:57;;;;;;;26.88;16.45;;;12.80;93.10;;;11.71;85.64;100476.56;5009023;28;20108;-81
2021/05/27 06:59:31;;;;;;;29.23;16.50;;;12.80;93.00;;;11.69;85.82;100473.16;5008811;28;20045;-79
2021/05/27 07:02:09;;;;;;;28.92;17.42;;;12.70;93.00;;;11.63;85.52;100484.84;5009022;28;20050;-80
2021/05/27 07:04:41;;;;;;;32.70;17.20;;;12.70;92.80;;;11.65;85.83;100489.06;5009012;28;20057;-79
2021/05/27 07:07:17;;;;;;;30.75;17.27;;;12.70;92.80;;;11.64;85.72;100486.53;5007535;28;20073;-79
2021/05/27 07:09:54;;;;;;;30.38;16.13;;;12.70;92.80;;;11.65;85.40;100485.47;5006726;28;20508;-79
2021/05/27 07:12:33;;;;;;;27.92;17.77;;;12.70;92.80;;;11.65;85.34;100489.06;5008891;28;20049;-80
2021/05/27 07:15:13;;;;;;;27.67;14.63;;;12.70;92.70;;;11.66;85.29;100488.03;5008956;28;20066;-80
2021/05/27 07:17:51;;;;;;;26.57;16.50;;;12.70;92.50;;;11.69;85.43;100489.50;5008911;28;20319;-79
2021/05/27 07:20:29;;;;;;;28.67;15.43;;;12.70;92.70;;;11.68;85.34;100488.66;5008509;28;20050;-80
2021/05/27 07:23:07;;;;;;;23.58;14.52;;;12.70;92.80;;;11.66;85.45;100487.19;5008570;28;20104;-80
2021/05/27 07:25:45;;;;;;;23.90;14.55;;;12.70;92.90;;;11.65;85.41;100483.63;5008243;28;20045;-81
2021/05/27 07:28:22;;;;;;;25.08;14.77;;;12.70;92.90;;;11.67;85.29;100497.91;5008541;28;20787;-83
2021/05/27 07:31:00;;;;;;;26.35;14.38;;;12.70;92.70;;;11.67;85.64;100495.19;5008378;28;20038;-84
2021/05/27 07:33:35;;;;;;;23.55;13.80;;;12.70;93.00;;;11.66;85.72;100501.66;5008533;28;20042;-83
2021/05/27 07:36:13;;;;;;;25.42;14.32;;;12.70;93.10;;;11.63;85.93;100495.75;5008853;28;20449;-83
2021/05/27 07:38:52;;;;;;;24.60;14.32;;;12.70;93.30;;;11.65;85.80;100494.53;5006055;28;20409;-83
2021/05/27 07:41:35;;;;;;;21.65;12.80;;;12.70;93.40;;;11.66;86.25;100489.91;5008683;28;20572;-84
2021/05/27 07:44:10;;;;;;;20.23;12.65;;;12.70;93.40;;;11.67;86.36;100494.31;5012465;28;20490;-83
2021/05/27 07:46:50;;;;;;;24.27;12.90;;;12.70;93.60;;;11.69;86.30;100494.97;5010629;28;20050;-83
2021/05/27 07:49:28;;;;;;;21.25;12.48;;;12.70;93.60;;;11.70;86.18;100497.50;5019775;28;20402;-83
2021/05/27 07:52:04;;;;;;;20.30;11.90;;;12.70;93.60;;;11.69;86.51;100501.28;5028183;28;20077;-83
2021/05/27 07:54:48;;;;;;;26.58;12.15;;;12.70;93.50;;;11.71;86.23;100503.81;5031686;28;20056;-83
2021/05/27 07:57:23;;;;;;;20.55;9.75;;;12.80;93.50;;;11.69;86.26;100505.88;5031630;28;20543;-83
2021/05/27 07:59:58;;;;;;;19.02;9.90;;;12.80;93.50;;;11.66;86.26;100506.28;5031228;28;20049;-82
2021/05/27 08:02:37;;;;;;;18.25;10.07;;;12.80;93.40;;;11.67;86.46;100508.81;5031454;28;20045;-82
2021/05/27 08:05:16;;;;;;;17.65;10.07;;;12.80;93.40;;;11.68;86.73;100510.47;5018765;28;20050;-81
2021/05/27 08:07:55;;;;;;;21.80;9.40;;;12.80;93.50;;;11.74;85.96;100503.41;5011646;28;20152;-82
2021/05/27 08:10:30;;;;;;;17.02;9.00;;;12.80;93.40;;;11.64;86.11;100503.72;5011657;28;20387;-83
2021/05/27 08:13:09;;;;;;;20.17;9.27;;;12.80;93.20;;;11.64;86.35;100511.06;5010431;28;20427;-83
2021/05/27 08:15:44;;;;;;;20.00;9.13;;;12.80;93.10;;;11.66;86.13;100512.56;5011810;28;20092;-82
2021/05/27 08:18:25;;;;;;;14.32;8.27;;;12.80;93.10;;;11.68;86.31;100515.09;5011815;28;20049;-82
2021/05/27 08:21:01;;;;;;;17.40;8.05;;;12.80;93.10;;;11.71;86.29;100515.56;5011374;28;20437;-82
2021/05/27 08:23:39;;;;;;;16.98;8.73;;;12.80;93.20;;;11.67;86.19;100514.25;5010277;28;20513;-82
2021/05/27 08:26:19;;;;;;;16.60;8.90;;;12.80;93.40;;;11.65;86.17;100519.06;5011395;28;20062;-82
2021/05/27 08:29:00;;;;;;;18.23;9.75;;;12.80;93.40;;;11.69;86.52;100512.19;5011463;28;20308;-82
2021/05/27 08:31:39;;;;;;;16.90;9.43;;;12.80;93.70;;;11.67;86.55;100518.84;5011107;28;20100;-82
2021/05/27 08:34:16;;;;;;;20.55;9.50;;;12.80;93.50;;;11.71;86.47;100523.75;5008989;28;20125;-82
2021/05/27 08:36:53;;;;;;;21.35;10.02;;;12.80;93.50;;;11.71;86.36;100525.63;5011265;28;20046;-82
2021/05/27 08:39:29;;;;;;;15.98;9.38;;;12.80;93.50;;;11.72;86.35;100521.84;5010979;28;20041;-82
2021/05/27 08:42:05;;;;;;;18.98;10.10;;;12.80;93.60;;;11.74;86.32;100520.63;5011227;28;20041;-82
2021/05/27 08:44:43;;;;;;;17.48;9.23;;;12.80;93.40;;;11.68;86.23;100526.84;5010952;28;20413;-82
2021/05/27 08:47:21;;;;;;;16.98;9.25;;;12.80;93.40;;;11.71;86.15;100529.19;5010617;28;20038;-82
2021/05/27 08:50:01;;;;;;;15.75;9.05;;;12.80;93.50;;;11.70;86.00;100527.50;5010635;28;20054;-82
2021/05/27 08:52:37;;;;;;;17.40;9.38;;;12.80;93.40;;;11.72;86.09;100528.13;5010965;28;20502;-82
2021/05/27 08:55:11;;;;;;;19.10;9.40;;;12.80;93.50;;;11.67;86.90;100533.34;5010741;28;20078;-82
2021/05/27 08:57:44;;;;;;;15.90;9.50;;;12.80;93.60;;;11.64;86.59;100541.06;5010889;28;20038;-82
2021/05/27 09:00:23;;;;;;;20.48;8.88;;;12.80;93.50;;;11.65;86.67;100535.41;5008777;28;20057;-81
2021/05/27 09:03:04;;;;;;;17.67;9.50;;;12.80;93.60;;;11.66;86.79;100539.81;5007367;28;20052;-82
2021/05/27 09:05:45;;;;;;;17.23;8.75;;;12.70;93.80;;;11.70;86.73;100546.56;5010169;28;20501;-81
2021/05/27 09:08:36;;;;;;;16.60;9.55;;;12.70;93.90;;;11.72;86.85;100540.94;5010282;28;20490;-82
2021/05/27 09:11:18;;;;;;;17.33;10.38;;;12.80;94.10;;;11.73;86.86;100543.47;5007480;28;20512;-82
2021/05/27 09:14:04;;;;;;;16.27;9.02;;;12.80;94.10;;;11.67;87.22;100541.53;5010535;28;20069;-82
2021/05/27 09:16:39;;;;;;;18.23;9.32;;;12.80;93.90;;;11.64;87.10;100547.34;5010398;28;20042;-82
2021/05/27 09:19:24;;;;;;;17.35;8.45;;;12.80;93.80;;;11.60;87.57;100545.22;5008704;28;20042;-82
2021/05/27 09:22:02;;;;;;;16.15;8.70;;;12.80;93.90;;;11.67;87.53;100555.16;5006144;28;20080;-82
2021/05/27 09:24:55;;;;;;;18.63;8.88;;;12.80;94.10;;;11.72;87.45;100560.84;5010069;28;20100;-81
2021/05/27 09:27:52;;;;;;;19.52;8.38;;;12.80;94.00;;;11.76;87.26;100555.03;5009100;28;20033;-83
2021/05/27 09:30:31;;;;;;;14.52;8.82;;;12.80;94.10;;;11.71;87.66;100567.38;5009910;28;20052;-82
2021/05/27 09:33:03;;;;;;;16.05;9.20;;;12.80;94.10;;;11.69;87.68;100571.28;5010376;28;20521;-82
2021/05/27 09:35:41;;;;;;;16.75;7.95;;;12.90;94.20;;;11.67;87.71;100574.25;5010091;28;20054;-82
2021/05/27 09:38:29;;;;;;;15.02;8.15;;;12.90;94.20;;;11.76;88.18;100577.69;5008947;28;20402;-82
2021/05/27 09:41:18;;;;;;;15.63;7.72;;;12.90;94.60;;;11.78;88.35;100574.78;5009714;28;20499;-81
2021/05/27 09:43:59;;;;;;;16.10;7.88;;;12.90;94.90;;;11.80;88.29;100584.44;5009999;28;20501;-82
2021/05/27 09:49:25;;;;;;;19.02;8.35;;;13.00;94.80;;;11.87;88.06;100590.00;5027765;28;20060;-81
2021/05/27 09:52:26;;;;;;;17.92;8.50;;;13.00;94.60;;;11.89;88.24;100587.91;5041601;28;20045;-83
2021/05/27 09:55:11;;;;;;;18.13;8.68;;;13.00;94.50;;;11.92;88.06;100587.56;5012875;28;20437;-83
2021/05/27 09:57:49;;;;;;;16.65;8.18;;;13.00;94.50;;;11.95;87.89;100586.34;5029450;28;20052;-82
2021/05/27 10:00:35;;;;;;;14.48;7.72;;;13.10;94.60;;;11.97;88.08;100585.09;5029670;28;20523;-83
2021/05/27 10:03:43;;;;;;;18.27;7.97;;;13.10;94.70;;;11.85;87.87;100594.78;5028882;28;20076;-83
2021/05/27 10:06:21;;;;;;;10.98;6.80;;;13.10;94.20;;;11.81;88.08;100599.78;5027652;28;20057;-83
2021/05/27 10:09:01;;;;;;;13.23;7.22;;;13.10;94.10;;;11.86;88.09;100607.38;5025499;28;20502;-83
2021/05/27 10:11:45;;;;;;;14.80;6.60;;;13.10;94.20;;;11.88;88.08;100614.34;5028985;28;20049;-83
2021/05/27 10:14:26;;;;;;;11.90;6.65;;;13.10;94.20;;;11.91;87.71;100608.53;5029099;28;20037;-83
2021/05/27 10:17:04;;;;;;;15.20;7.10;;;13.10;94.20;;;11.92;87.71;100615.69;5029039;28;20049;-83
2021/05/27 10:19:42;;;;;;;13.93;6.65;;;13.10;94.00;;;11.90;87.57;100615.03;5028796;28;20052;-83
2021/05/27 10:22:20;;;;;;;12.77;6.82;;;13.10;93.70;;;11.94;87.67;100618.22;5029027;28;20490;-83
2021/05/27 10:24:53;;;;;;;12.63;6.38;;;13.10;94.00;;;11.96;87.61;100615.31;5011192;28;20052;-82
2021/05/27 10:27:34;;;;;;;15.27;7.20;;;13.10;94.00;;;11.98;87.91;100619.53;5028866;28;20045;-82
2021/05/27 10:30:12;;;;;;;;;;;13.10;94.20;;;11.98;88.34;100614.06;5029115;28;20129;-82
2021/05/27 10:32:54;;;;;;;14.45;8.18;;;13.20;94.20;;;11.99;87.82;100621.19;5028831;28;19932;-83
2021/05/27 10:35:48;;;;;;;16.02;8.38;;;13.20;94.00;;;12.00;87.97;100625.63;5028871;28;20090;-82
2021/05/27 10:38:54;;;;;;;13.60;8.25;;;13.20;94.10;;;11.99;87.79;100625.81;5028884;28;20071;-82
2021/05/27 10:42:02;;;;;;;14.20;8.27;;;13.10;94.10;;;11.99;87.63;100621.19;5025397;28;20060;-82
2021/05/27 10:45:10;;;;;;;13.50;8.02;;;13.10;94.10;;;12.00;87.85;100625.63;5028873;28;20076;-83
2021/05/27 10:48:27;;;;;;;17.33;8.93;;;13.10;94.00;;;11.99;87.69;100628.56;5027129;28;20038;-83
2021/05/27 10:54:07;;;;;;;14.63;8.85;;;13.10;94.30;;;11.99;87.59;100625.81;5025616;28;20053;-82
2021/05/27 10:56:49;;;;;;;14.63;7.97;;;13.10;94.30;;;11.95;87.46;100628.09;5028350;28;20045;-83
2021/05/27 10:59:34;;;;;;;15.85;7.75;;;13.10;94.10;;;11.96;87.55;100629.78;5024875;28;20037;-82
2021/05/27 11:02:22;;;;;;;14.40;6.53;;;13.10;94.00;;;11.95;86.92;100629.97;5034086;28;20053;-82
2021/05/27 11:05:22;;;;;;;13.50;7.45;;;13.10;93.90;;;11.88;87.59;100635.28;5031803;28;20104;-82
2021/05/27 11:08:27;;;;;;;14.75;7.30;;;13.10;93.90;;;11.92;88.03;100631.22;5028407;28;20037;-82
2021/05/27 11:11:23;;;;;;;14.65;6.68;;;13.10;94.00;;;11.96;87.80;100632.50;5026554;28;20545;-82
2021/05/27 11:14:27;;;;;;;13.15;6.97;;;13.10;94.30;;;11.98;87.81;100635.91;5020071;28;20041;-82
2021/05/27 11:17:27;;;;;;;13.27;6.63;;;13.10;94.30;;;11.99;88.20;100625.81;5009889;28;20064;-82